Time;durP1;ratioP1;P1;durP2;ratioP2;P2;SDS_P1;SDS_P2;PMS_P1;PMS_P2;Temp;Humidity;BMP_temperature;BMP_pressure;BME280_temperature;BME280_humidity;BME280_pressure;Samples;Min_cycle;Max_cycle;Signal;HPM_P1;HPM_P2
2023/07/19 00:00:43;;;;;;;39.90;37.45;;;22.60;90.40;;;;;;5013925;28;20415;-76
2023/07/19 00:03:09;;;;;;;36.45;34.22;;;22.50;90.40;;;;;;5013282;28;20030;-76
2023/07/19 00:05:35;;;;;;;37.53;35.22;;;22.50;90.40;;;;;;5014072;28;20057;-76
2023/07/19 00:08:04;;;;;;;38.83;36.20;;;22.50;90.40;;;;;;5014284;28;20033;-76
2023/07/19 00:10:31;;;;;;;37.28;34.75;;;22.40;90.60;;;;;;5014184;28;20034;-77
2023/07/19 00:12:57;;;;;;;39.15;36.72;;;22.40;90.90;;;;;;5014445;28;20383;-77
2023/07/19 00:15:23;;;;;;;43.42;40.58;;;22.30;91.00;;;;;;5013427;28;20026;-76
2023/07/19 00:17:49;;;;;;;42.45;39.67;;;22.30;91.20;;;;;;5014192;28;20044;-76
2023/07/19 00:20:16;;;;;;;44.03;41.40;;;22.10;91.40;;;;;;5013546;28;20026;-77
2023/07/19 00:22:42;;;;;;;41.13;38.42;;;22.10;91.40;;;;;;5012524;28;20045;-76
2023/07/19 00:25:08;;;;;;;44.05;41.17;;;22.10;91.40;;;;;;5014016;28;20364;-77
2023/07/19 00:27:34;;;;;;;44.05;41.30;;;22.10;91.50;;;;;;4994544;28;20035;-76
2023/07/19 00:30:00;;;;;;;44.28;41.80;;;22.00;91.70;;;;;;4994410;28;20361;-76
2023/07/19 00:32:26;;;;;;;45.25;42.45;;;22.00;91.80;;;;;;5012375;28;20037;-76
2023/07/19 00:34:53;;;;;;;45.38;42.75;;;22.00;91.90;;;;;;5013576;28;20378;-75
2023/07/19 00:37:19;;;;;;;46.20;43.40;;;22.00;91.90;;;;;;5013346;28;20049;-76
2023/07/19 00:39:45;;;;;;;48.10;45.00;;;21.80;92.10;;;;;;5013819;28;20034;-76
2023/07/19 00:42:11;;;;;;;48.70;45.58;;;21.80;92.30;;;;;;5013498;28;20041;-76
2023/07/19 00:44:37;;;;;;;45.80;43.30;;;21.80;92.20;;;;;;5013807;28;20038;-76
2023/07/19 00:47:03;;;;;;;45.67;43.17;;;21.80;92.30;;;;;;5012838;28;20064;-76
2023/07/19 00:49:31;;;;;;;45.15;42.45;;;21.80;92.40;;;;;;5011966;28;20041;-75
2023/07/19 00:52:01;;;;;;;43.65;41.03;;;21.80;92.40;;;;;;5012498;28;20038;-76
2023/07/19 00:54:28;;;;;;;40.50;37.97;;;21.80;92.60;;;;;;5012498;28;20021;-77
2023/07/19 00:56:54;;;;;;;39.67;37.30;;;21.70;92.80;;;;;;5012007;28;20037;-76
2023/07/19 00:59:21;;;;;;;41.60;38.90;;;21.70;92.80;;;;;;5013432;28;20029;-76
2023/07/19 01:01:47;;;;;;;39.95;37.70;;;21.70;92.90;;;;;;5011506;28;20513;-76
2023/07/19 01:04:13;;;;;;;40.38;37.88;;;21.60;93.00;;;;;;5013098;28;20041;-76
2023/07/19 01:06:39;;;;;;;38.92;36.58;;;21.60;93.10;;;;;;5013413;28;20049;-76
2023/07/19 01:09:05;;;;;;;37.60;35.38;;;21.60;93.20;;;;;;5012178;28;20034;-76
2023/07/19 01:11:31;;;;;;;37.33;35.08;;;21.60;93.20;;;;;;5011652;28;20037;-76
2023/07/19 01:13:58;;;;;;;36.95;34.53;;;21.60;93.40;;;;;;5013467;28;20046;-76
2023/07/19 01:16:24;;;;;;;35.63;33.47;;;21.50;93.40;;;;;;5012483;28;20495;-76
2023/07/19 01:18:50;;;;;;;35.70;33.20;;;21.50;93.60;;;;;;5012853;28;20037;-75
2023/07/19 01:21:16;;;;;;;32.40;30.15;;;21.50;93.60;;;;;;5012862;28;20029;-76
2023/07/19 01:23:42;;;;;;;29.83;27.77;;;21.40;93.80;;;;;;5013094;28;20033;-77
2023/07/19 01:26:08;;;;;;;29.85;27.85;;;21.40;94.00;;;;;;5012697;28;20046;-76
2023/07/19 01:28:34;;;;;;;28.48;26.30;;;21.30;94.20;;;;;;5011265;28;20030;-76
2023/07/19 01:31:05;;;;;;;25.15;23.35;;;21.30;94.40;;;;;;5012227;28;20034;-76
2023/07/19 01:33:31;;;;;;;24.58;22.67;;;21.30;94.70;;;;;;5010847;28;20037;-75
2023/07/19 01:35:57;;;;;;;23.05;21.35;;;21.30;94.60;;;;;;5012678;28;20036;-76
2023/07/19 01:38:24;;;;;;;19.17;17.75;;;21.30;94.90;;;;;;5012975;28;20017;-76
2023/07/19 01:40:50;;;;;;;22.17;20.52;;;21.30;94.90;;;;;;5012587;28;20037;-75
2023/07/19 01:43:16;;;;;;;21.40;19.95;;;21.20;95.00;;;;;;5012719;28;20030;-76
2023/07/19 01:45:43;;;;;;;23.55;21.92;;;21.20;95.30;;;;;;5012107;28;20050;-76
2023/07/19 01:48:09;;;;;;;25.33;23.40;;;21.20;95.40;;;;;;5012684;28;20395;-75
2023/07/19 01:50:35;;;;;;;22.13;20.58;;;21.20;95.50;;;;;;5012400;28;20050;-76
2023/07/19 01:53:02;;;;;;;22.05;20.50;;;21.20;95.70;;;;;;5012624;28;20375;-76
2023/07/19 01:55:28;;;;;;;20.23;18.65;;;21.20;96.00;;;;;;5012543;28;20060;-76
2023/07/19 01:57:54;;;;;;;22.27;20.55;;;21.20;96.10;;;;;;5012126;28;20018;-76
2023/07/19 02:00:20;;;;;;;18.63;16.55;;;21.10;96.30;;;;;;5008941;28;20030;-76
2023/07/19 02:02:46;;;;;;;19.05;17.40;;;21.10;96.30;;;;;;5008431;28;20022;-76
2023/07/19 02:05:12;;;;;;;16.98;15.38;;;21.00;96.50;;;;;;5007225;28;20030;-76
2023/07/19 02:07:38;;;;;;;15.90;14.70;;;21.00;96.80;;;;;;5011089;28;20034;-76
2023/07/19 02:10:05;;;;;;;16.77;15.13;;;21.00;97.00;;;;;;5011385;28;20041;-76
2023/07/19 02:12:31;;;;;;;16.02;14.43;;;21.00;97.20;;;;;;5010861;28;20476;-76
2023/07/19 02:14:57;;;;;;;16.20;14.18;;;20.90;97.50;;;;;;5011318;28;20034;-76
2023/07/19 02:17:23;;;;;;;17.90;16.33;;;20.90;97.60;;;;;;5010299;28;20506;-76
2023/07/19 02:19:49;;;;;;;22.83;21.10;;;20.90;97.70;;;;;;5011294;28;20030;-76
2023/07/19 02:22:15;;;;;;;32.13;29.73;;;20.80;97.80;;;;;;5010893;28;20401;-76
2023/07/19 02:24:42;;;;;;;28.92;26.83;;;20.80;98.00;;;;;;5011069;28;20041;-76
2023/07/19 02:27:08;;;;;;;28.23;26.13;;;20.70;98.20;;;;;;5010747;28;20065;-76
2023/07/19 02:29:34;;;;;;;27.52;25.33;;;20.70;98.40;;;;;;5011065;28;20040;-76
2023/07/19 02:32:00;;;;;;;24.63;22.33;;;20.70;98.50;;;;;;5010043;28;20402;-76
2023/07/19 02:34:26;;;;;;;26.30;24.17;;;20.60;98.60;;;;;;5011070;28;20034;-76
2023/07/19 02:36:52;;;;;;;21.92;20.33;;;20.60;99.10;;;;;;5011221;28;20387;-76
2023/07/19 02:39:20;;;;;;;21.25;19.55;;;20.60;99.00;;;;;;5012286;28;20040;-76
2023/07/19 02:41:46;;;;;;;23.50;21.67;;;20.60;99.40;;;;;;5015746;28;20034;-76
2023/07/19 02:44:12;;;;;;;21.10;19.45;;;20.60;99.60;;;;;;5016067;28;20037;-76
2023/07/19 02:46:38;;;;;;;19.58;17.83;;;20.60;99.80;;;;;;5014839;28;20069;-77
2023/07/19 02:49:04;;;;;;;17.38;15.20;;;20.60;99.90;;;;;;5015249;28;20045;-76
2023/07/19 02:51:30;;;;;;;14.02;12.57;;;20.60;99.90;;;;;;5015601;28;20037;-75
2023/07/19 02:53:56;;;;;;;10.80;8.30;;;20.50;99.90;;;;;;5016215;28;20383;-76
2023/07/19 02:56:23;;;;;;;10.60;8.65;;;20.40;99.90;;;;;;5015305;28;20044;-76
2023/07/19 02:58:49;;;;;;;20.10;18.27;;;20.40;99.90;;;;;;5016241;28;20037;-76
2023/07/19 03:01:15;;;;;;;19.77;17.92;;;20.40;99.90;;;;;;5014499;28;20029;-76
2023/07/19 03:03:41;;;;;;;19.20;17.73;;;20.40;99.90;;;;;;5015504;28;20038;-76
2023/07/19 03:06:10;;;;;;;30.70;28.73;;;20.40;99.90;;;;;;5015446;28;20368;-76
2023/07/19 03:08:37;;;;;;;24.95;22.75;;;20.40;99.90;;;;;;5015415;28;20034;-76
2023/07/19 03:11:06;;;;;;;27.02;24.95;;;20.40;99.90;;;;;;5013644;28;20049;-76
2023/07/19 03:13:32;;;;;;;30.58;28.48;;;20.40;99.90;;;;;;5014346;28;20364;-75
2023/07/19 03:15:58;;;;;;;26.73;24.85;;;20.40;99.90;;;;;;5014403;28;20034;-76
2023/07/19 03:18:24;;;;;;;24.65;22.63;;;20.30;99.90;;;;;;5015322;28;20030;-76
2023/07/19 03:21:00;;;;;;;26.08;24.02;;;20.30;99.90;;;;;;5015034;28;20026;-76
2023/07/19 03:23:27;;;;;;;26.38;24.52;;;20.20;99.90;;;;;;5015299;28;20026;-77
2023/07/19 03:25:57;;;;;;;30.48;27.70;;;20.20;99.90;;;;;;4997676;28;20050;-76
2023/07/19 03:28:28;;;;;;;32.22;29.67;;;20.20;99.90;;;;;;5015541;28;20022;-76
2023/07/19 03:30:54;;;;;;;35.38;32.88;;;20.00;99.90;;;;;;5012860;28;20368;-77
2023/07/19 03:33:24;;;;;;;46.45;43.60;;;20.00;99.90;;;;;;5014153;28;20061;-76
2023/07/19 03:35:50;;;;;;;38.08;35.58;;;20.00;99.90;;;;;;5014479;28;20479;-76
2023/07/19 03:38:18;;;;;;;43.58;40.83;;;20.00;99.90;;;;;;5013827;28;20049;-77
2023/07/19 03:40:44;;;;;;;30.67;28.60;;;20.00;99.90;;;;;;5014775;28;20029;-76
2023/07/19 03:43:10;;;;;;;39.15;36.58;;;19.90;99.90;;;;;;5013297;28;20049;-76
2023/07/19 03:45:36;;;;;;;44.33;41.33;;;20.00;99.90;;;;;;5013777;28;20038;-76
2023/07/19 03:48:02;;;;;;;17.38;14.52;;;19.90;99.90;;;;;;5014794;28;20062;-76
2023/07/19 03:50:28;;;;;;;12.38;9.55;;;19.80;99.90;;;;;;5013740;28;20101;-76
2023/07/19 03:52:54;;;;;;;14.60;11.98;;;19.80;99.90;;;;;;5014751;28;20029;-76
2023/07/19 03:55:21;;;;;;;13.63;12.15;;;19.80;99.90;;;;;;5014224;28;20431;-76
2023/07/19 03:57:47;;;;;;;14.70;9.13;;;19.80;99.90;;;;;;5014282;28;20022;-75
2023/07/19 04:00:13;;;;;;;9.95;8.77;;;19.80;99.90;;;;;;5013720;28;20037;-75
2023/07/19 04:02:39;;;;;;;14.40;8.32;;;19.70;99.90;;;;;;5012828;28;20038;-76
2023/07/19 04:05:05;;;;;;;14.15;9.10;;;19.70;99.90;;;;;;5014494;28;20033;-76
2023/07/19 04:07:31;;;;;;;14.38;10.38;;;19.60;99.90;;;;;;5014574;28;20046;-75
2023/07/19 04:09:58;;;;;;;17.17;10.55;;;19.60;99.90;;;;;;5014476;28;20038;-76
2023/07/19 04:12:24;;;;;;;13.73;10.18;;;19.60;99.90;;;;;;5012377;28;20034;-76
2023/07/19 04:14:50;;;;;;;14.80;11.45;;;19.60;99.90;;;;;;5014448;28;20368;-75
2023/07/19 04:17:16;;;;;;;12.30;9.27;;;19.60;99.90;;;;;;5013606;28;20042;-75
2023/07/19 04:19:42;;;;;;;17.40;11.40;;;19.60;99.90;;;;;;5013299;28;20395;-76
2023/07/19 04:22:08;;;;;;;16.13;12.43;;;19.50;99.90;;;;;;5014058;28;20057;-76
2023/07/19 04:24:34;;;;;;;12.40;9.40;;;19.50;99.90;;;;;;5014201;28;20049;-76
2023/07/19 04:27:00;;;;;;;17.02;12.85;;;19.50;99.90;;;;;;5013412;28;20651;-75
2023/07/19 04:29:26;;;;;;;13.63;10.60;;;19.50;99.90;;;;;;5014179;28;20030;-76
2023/07/19 04:31:52;;;;;;;12.55;11.10;;;19.60;99.90;;;;;;5013101;28;20038;-76
2023/07/19 04:34:20;;;;;;;12.50;10.50;;;19.60;99.90;;;;;;5013916;28;20026;-76
2023/07/19 04:36:46;;;;;;;14.15;10.77;;;19.60;99.90;;;;;;5013370;28;20057;-77
2023/07/19 04:39:12;;;;;;;15.48;11.88;;;19.60;99.90;;;;;;5013942;28;20026;-77
2023/07/19 04:41:38;;;;;;;12.68;11.57;;;19.60;99.90;;;;;;5013177;28;20038;-76
2023/07/19 04:44:04;;;;;;;10.57;8.63;;;19.70;99.90;;;;;;5013819;28;20037;-76
2023/07/19 04:46:30;;;;;;;12.65;9.68;;;19.60;99.90;;;;;;5013206;28;20503;-76
2023/07/19 04:48:56;;;;;;;13.52;11.07;;;19.70;99.90;;;;;;5013678;28;20045;-76
2023/07/19 04:51:22;;;;;;;16.75;14.13;;;19.70;99.90;;;;;;5013508;28;20038;-76
2023/07/19 04:53:50;;;;;;;16.23;12.00;;;19.80;99.90;;;;;;5013906;28;20058;-76
2023/07/19 04:56:16;;;;;;;11.52;10.35;;;19.70;99.90;;;;;;5013040;28;20065;-75
2023/07/19 04:58:42;;;;;;;12.57;11.40;;;19.80;99.90;;;;;;5013381;28;20026;-76
2023/07/19 05:01:08;;;;;;;16.58;12.15;;;19.80;99.90;;;;;;5012852;28;20454;-76
2023/07/19 05:03:37;;;;;;;14.80;10.95;;;19.80;99.90;;;;;;5012703;28;20030;-76
2023/07/19 05:06:04;;;;;;;10.98;9.98;;;19.80;99.90;;;;;;5013132;28;20037;-76
2023/07/19 05:08:30;;;;;;;15.23;10.30;;;19.80;99.90;;;;;;5013680;28;20049;-76
2023/07/19 05:10:56;;;;;;;12.85;10.02;;;19.80;99.90;;;;;;5012655;28;20030;-77
2023/07/19 05:13:22;;;;;;;12.20;10.18;;;19.80;99.90;;;;;;5013415;28;20030;-76
2023/07/19 05:15:48;;;;;;;11.15;9.95;;;19.80;99.90;;;;;;5012594;28;20038;-76
2023/07/19 05:18:14;;;;;;;10.13;9.07;;;19.80;99.90;;;;;;5013372;28;20030;-75
2023/07/19 05:20:40;;;;;;;9.73;8.77;;;19.80;99.90;;;;;;5012902;28;20018;-76
2023/07/19 05:23:06;;;;;;;10.23;8.82;;;19.70;99.90;;;;;;5012996;28;20034;-76
2023/07/19 05:25:32;;;;;;;11.85;9.38;;;19.70;99.90;;;;;;5009189;28;20029;-75
2023/07/19 05:27:58;;;;;;;13.02;10.10;;;19.70;99.90;;;;;;5012976;28;20157;-75
2023/07/19 05:30:24;;;;;;;9.93;9.02;;;19.80;99.90;;;;;;5012409;28;20041;-76
2023/07/19 05:32:51;;;;;;;12.75;10.93;;;19.90;99.90;;;;;;5012758;28;20018;-75
2023/07/19 05:35:17;;;;;;;14.82;9.82;;;20.00;99.90;;;;;;5012814;28;20037;-76
2023/07/19 05:37:43;;;;;;;10.85;8.73;;;20.10;99.90;;;;;;5012742;28;20037;-76
2023/07/19 05:40:09;;;;;;;10.20;9.30;;;20.30;99.90;;;;;;5012678;28;20030;-76
2023/07/19 05:42:36;;;;;;;13.00;10.48;;;20.40;99.90;;;;;;5012668;28;20033;-76
2023/07/19 05:45:03;;;;;;;15.25;13.73;;;20.50;99.90;;;;;;5012734;28;20030;-77
2023/07/19 05:47:29;;;;;;;16.58;15.15;;;20.70;99.90;;;;;;5011917;28;20517;-76
2023/07/19 05:49:55;;;;;;;16.17;14.05;;;20.60;99.90;;;;;;5011318;28;20053;-77
2023/07/19 05:52:21;;;;;;;14.45;13.07;;;20.70;99.90;;;;;;5012380;28;20510;-76
2023/07/19 05:54:47;;;;;;;13.15;11.88;;;20.70;99.90;;;;;;5012405;28;20045;-76
2023/07/19 05:57:13;;;;;;;12.88;11.75;;;20.80;99.90;;;;;;5012319;28;20379;-76
2023/07/19 05:59:39;;;;;;;14.80;13.05;;;20.90;99.90;;;;;;5012632;28;20033;-76
2023/07/19 06:02:05;;;;;;;13.88;12.77;;;21.10;99.90;;;;;;5011825;28;20038;-76
2023/07/19 06:04:32;;;;;;;16.98;15.25;;;21.10;99.90;;;;;;5012473;28;20034;-76
2023/07/19 06:06:58;;;;;;;16.10;14.73;;;21.10;99.90;;;;;;5010829;28;20045;-76
2023/07/19 06:09:24;;;;;;;15.40;14.32;;;20.80;99.90;;;;;;5012398;28;20416;-76
2023/07/19 06:11:50;;;;;;;18.23;16.42;;;20.70;99.90;;;;;;5012423;28;20045;-76
2023/07/19 06:14:16;;;;;;;15.35;13.93;;;20.70;99.90;;;;;;5014164;28;20053;-75
2023/07/19 06:16:42;;;;;;;18.30;17.00;;;20.80;99.90;;;;;;5015800;28;20030;-75
2023/07/19 06:19:08;;;;;;;19.35;17.75;;;20.70;99.90;;;;;;5016919;28;20038;-76
2023/07/19 06:21:34;;;;;;;23.88;22.23;;;20.70;99.90;;;;;;5016271;28;20041;-76
2023/07/19 06:24:01;;;;;;;20.65;19.05;;;20.70;99.90;;;;;;5016021;28;20030;-75
2023/07/19 06:26:27;;;;;;;22.55;20.83;;;20.60;99.90;;;;;;5016013;28;20394;-76
2023/07/19 06:28:53;;;;;;;22.33;20.73;;;20.60;99.90;;;;;;5016545;28;20034;-76
2023/07/19 06:31:19;;;;;;;17.25;15.85;;;20.50;99.90;;;;;;5015724;28;20034;-76
2023/07/19 06:33:45;;;;;;;13.63;12.30;;;20.40;99.90;;;;;;5016479;28;20049;-76
2023/07/19 06:36:11;;;;;;;12.68;11.57;;;20.40;99.90;;;;;;5015903;28;20037;-75
2023/07/19 06:38:37;;;;;;;12.32;11.32;;;20.50;99.90;;;;;;5015730;28;20026;-76
2023/07/19 06:41:04;;;;;;;16.27;15.15;;;20.50;99.90;;;;;;5015830;28;20045;-75
2023/07/19 06:43:30;;;;;;;13.60;12.40;;;20.60;99.90;;;;;;5014909;28;20025;-75
2023/07/19 06:45:56;;;;;;;11.20;10.35;;;20.60;99.90;;;;;;5015102;28;20034;-76
2023/07/19 06:48:22;;;;;;;12.13;11.07;;;20.70;99.90;;;;;;5015955;28;20379;-76
2023/07/19 06:50:49;;;;;;;16.55;15.35;;;20.80;99.90;;;;;;5014475;28;20050;-76
2023/07/19 06:53:16;;;;;;;14.85;13.45;;;20.80;99.90;;;;;;5016148;28;20050;-75
2023/07/19 06:55:42;;;;;;;11.90;10.80;;;20.90;99.90;;;;;;5015391;28;20383;-75
2023/07/19 06:58:08;;;;;;;13.32;12.30;;;21.10;99.90;;;;;;5015954;28;20026;-76
2023/07/19 07:00:34;;;;;;;15.73;14.25;;;21.20;99.90;;;;;;5015073;28;20076;-76
2023/07/19 07:03:03;;;;;;;15.48;14.32;;;21.30;99.90;;;;;;5015507;28;20026;-76
2023/07/19 07:05:29;;;;;;;17.45;16.33;;;21.30;99.90;;;;;;5015379;28;20624;-76
2023/07/19 07:07:55;;;;;;;16.75;15.73;;;21.40;99.90;;;;;;5015301;28;20049;-76
2023/07/19 07:10:21;;;;;;;18.05;16.48;;;21.50;99.90;;;;;;5015154;28;20057;-76
2023/07/19 07:12:48;;;;;;;18.88;17.58;;;21.60;99.90;;;;;;5015512;28;20026;-75
2023/07/19 07:15:14;;;;;;;21.20;19.80;;;21.70;99.90;;;;;;5013682;28;20048;-75
2023/07/19 07:17:40;;;;;;;21.63;20.13;;;21.70;99.90;;;;;;5015311;28;20030;-76
2023/07/19 07:20:07;;;;;;;21.52;20.20;;;21.60;99.90;;;;;;5015764;28;20374;-76
2023/07/19 07:22:33;;;;;;;22.98;21.58;;;21.70;99.90;;;;;;5014594;28;20056;-75
2023/07/19 07:24:59;;;;;;;20.83;19.63;;;21.80;99.90;;;;;;5014830;28;20033;-75
2023/07/19 07:27:28;;;;;;;22.90;21.20;;;21.80;99.90;;;;;;5013428;28;20398;-75
2023/07/19 07:29:54;;;;;;;21.42;20.17;;;21.80;99.90;;;;;;5015185;28;20042;-75
2023/07/19 07:32:20;;;;;;;25.63;24.17;;;21.90;99.90;;;;;;5013095;28;20501;-76
2023/07/19 07:34:46;;;;;;;26.77;25.15;;;22.10;99.90;;;;;;5015146;28;20026;-75
2023/07/19 07:37:12;;;;;;;27.50;25.88;;;22.30;99.90;;;;;;5014124;28;20498;-75
2023/07/19 07:39:38;;;;;;;26.40;24.90;;;22.30;99.90;;;;;;5015013;28;20029;-76
2023/07/19 07:42:05;;;;;;;28.77;26.98;;;22.40;99.90;;;;;;5014716;28;20041;-76
2023/07/19 07:44:31;;;;;;;25.98;24.45;;;22.20;99.90;;;;;;5014726;28;20099;-75
2023/07/19 07:46:57;;;;;;;26.65;25.08;;;22.10;99.90;;;;;;5012728;28;20121;-75
2023/07/19 07:49:23;;;;;;;18.63;17.55;;;22.10;99.90;;;;;;5014420;28;20037;-76
2023/07/19 07:51:50;;;;;;;20.23;19.05;;;22.20;99.90;;;;;;5014173;28;20050;-76
2023/07/19 07:54:16;;;;;;;21.10;19.65;;;22.50;99.90;;;;;;5013479;28;20030;-76
2023/07/19 07:56:42;;;;;;;24.58;23.10;;;22.80;99.90;;;;;;5014507;28;20034;-76
2023/07/19 07:59:08;;;;;;;33.33;31.52;;;23.10;99.90;;;;;;5014576;28;20030;-76
2023/07/19 08:01:34;;;;;;;52.67;49.90;;;23.20;99.90;;;;;;5014043;28;20041;-75
2023/07/19 08:04:01;;;;;;;49.13;46.42;;;23.30;99.90;;;;;;5014263;28;20034;-76
2023/07/19 08:06:27;;;;;;;31.10;29.35;;;23.60;99.90;;;;;;5013780;28;20041;-76
2023/07/19 08:08:53;;;;;;;28.67;26.90;;;23.60;99.90;;;;;;5014497;28;20037;-76
2023/07/19 08:11:21;;;;;;;23.63;22.40;;;23.60;99.90;;;;;;5014275;28;20052;-76
2023/07/19 08:13:47;;;;;;;26.02;24.63;;;23.20;99.90;;;;;;5014254;28;20053;-76
2023/07/19 08:16:13;;;;;;;29.52;27.88;;;23.20;99.90;;;;;;5013576;28;20038;-76
2023/07/19 08:18:39;;;;;;;28.30;26.80;;;23.00;99.90;;;;;;5012669;28;20494;-76
2023/07/19 08:21:07;;;;;;;36.10;34.00;;;23.00;99.90;;;;;;5013777;28;20033;-76
2023/07/19 08:23:33;;;;;;;34.70;32.92;;;23.10;99.90;;;;;;5013999;28;20033;-75
2023/07/19 08:25:59;;;;;;;43.50;41.20;;;23.30;99.90;;;;;;5013982;28;20030;-75
2023/07/19 08:28:25;;;;;;;31.48;29.67;;;23.60;99.90;;;;;;5014339;28;20049;-76
2023/07/19 08:30:52;;;;;;;26.30;24.90;;;23.60;99.90;;;;;;5013605;28;20490;-75
2023/07/19 08:33:20;;;;;;;26.63;24.92;;;23.70;99.90;;;;;;5014048;28;20057;-75
2023/07/19 08:35:46;;;;;;;25.88;24.25;;;23.60;99.90;;;;;;5013485;28;20654;-75
2023/07/19 08:38:12;;;;;;;33.28;31.40;;;23.60;99.90;;;;;;5013720;28;20044;-75
2023/07/19 08:40:38;;;;;;;36.92;34.85;;;23.50;99.90;;;;;;5014163;28;20483;-75
2023/07/19 08:43:08;;;;;;;38.15;36.00;;;23.50;99.90;;;;;;5013894;28;20042;-76
2023/07/19 08:45:37;;;;;;;36.88;35.00;;;23.40;99.90;;;;;;5013009;28;20390;-76
2023/07/19 08:48:04;;;;;;;49.53;46.78;;;23.30;99.90;;;;;;5011602;28;20050;-77
2023/07/19 08:50:30;;;;;;;46.38;43.83;;;23.40;99.90;;;;;;5013275;28;20613;-76
2023/07/19 08:53:01;;;;;;;37.08;35.17;;;23.60;99.90;;;;;;5012372;28;20049;-76
2023/07/19 08:55:30;;;;;;;102.30;96.93;;;24.00;99.90;;;;;;5013304;28;20033;-76
2023/07/19 08:57:56;;;;;;;111.25;105.75;;;24.20;98.90;;;;;;5013744;28;20049;-76
2023/07/19 09:00:22;;;;;;;95.13;90.30;;;24.30;99.20;;;;;;5011672;28;20026;-76
2023/07/19 09:02:49;;;;;;;65.55;62.20;;;24.30;98.70;;;;;;5013252;28;20038;-76
2023/07/19 09:05:15;;;;;;;55.20;52.28;;;24.50;98.30;;;;;;5013208;28;20033;-76
2023/07/19 09:07:41;;;;;;;53.25;50.45;;;24.60;98.00;;;;;;5013284;28;20045;-76
2023/07/19 09:10:08;;;;;;;55.33;52.35;;;24.60;97.60;;;;;;5013300;28;20025;-76
2023/07/19 09:12:39;;;;;;;39.65;37.25;;;24.50;98.00;;;;;;5012930;28;20395;-76
2023/07/19 09:15:06;;;;;;;44.60;42.30;;;24.50;97.50;;;;;;5012766;28;20026;-77
2023/07/19 09:17:40;;;;;;;63.90;60.60;;;24.50;97.40;;;;;;5012605;28;20495;-76
2023/07/19 09:20:07;;;;;;;58.60;55.45;;;24.30;97.60;;;;;;5013663;28;20364;-76
2023/07/19 09:22:35;;;;;;;58.63;55.67;;;24.10;97.60;;;;;;5012634;28;20034;-76
2023/07/19 09:25:03;;;;;;;45.47;43.05;;;24.10;97.90;;;;;;5012012;28;20034;-77
2023/07/19 09:27:29;;;;;;;42.40;40.10;;;24.30;97.60;;;;;;5012776;28;20049;-76
2023/07/19 09:29:56;;;;;;;28.83;27.25;;;24.50;98.30;;;;;;5013175;28;20026;-76
2023/07/19 09:32:23;;;;;;;34.20;32.50;;;24.90;97.50;;;;;;5011960;28;20030;-76
2023/07/19 09:34:52;;;;;;;39.15;36.83;;;25.00;96.80;;;;;;5012840;28;20065;-76
2023/07/19 09:37:20;;;;;;;38.05;35.88;;;25.00;96.90;;;;;;5011442;28;20336;-76
2023/07/19 09:39:46;;;;;;;48.00;45.38;;;24.60;96.50;;;;;;5011673;28;20037;-76
2023/07/19 09:42:13;;;;;;;44.58;42.17;;;24.50;97.00;;;;;;5012500;28;20033;-75
2023/07/19 09:44:39;;;;;;;43.90;41.33;;;24.50;97.10;;;;;;5012889;28;20041;-77
2023/07/19 09:47:09;;;;;;;38.03;35.97;;;24.60;97.00;;;;;;5011630;28;20046;-76
2023/07/19 09:49:38;;;;;;;35.97;34.08;;;24.70;96.50;;;;;;5012319;28;20041;-75
2023/07/19 09:52:04;;;;;;;41.17;38.80;;;24.80;96.40;;;;;;5012589;28;20033;-76
2023/07/19 09:54:31;;;;;;;37.95;35.88;;;24.70;96.20;;;;;;5011670;28;20034;-76
2023/07/19 09:56:58;;;;;;;34.08;32.25;;;24.90;96.50;;;;;;5012397;28;20046;-76
2023/07/19 09:59:27;;;;;;;31.38;29.58;;;25.00;96.10;;;;;;5012679;28;20455;-76
2023/07/19 10:01:53;;;;;;;32.10;30.40;;;25.00;96.00;;;;;;5010209;28;20053;-76
2023/07/19 10:04:26;;;;;;;30.92;29.10;;;25.10;96.40;;;;;;4994972;28;20038;-76
2023/07/19 10:07:08;;;;;;;30.50;28.90;;;25.20;95.80;;;;;;5012314;28;20050;-76
2023/07/19 10:09:39;;;;;;;29.90;28.13;;;25.10;95.90;;;;;;5012898;28;20054;-76
2023/07/19 10:12:29;;;;;;;30.08;28.45;;;25.20;95.90;;;;;;5012240;28;20026;-77
2023/07/19 10:15:08;;;;;;;28.95;26.98;;;25.10;95.20;;;;;;5010153;28;20045;-76
2023/07/19 10:17:41;;;;;;;28.05;26.40;;;25.10;94.80;;;;;;5011512;28;20034;-76
2023/07/19 10:20:12;;;;;;;30.60;28.50;;;25.10;95.20;;;;;;5012560;28;20026;-77
2023/07/19 10:22:48;;;;;;;29.08;27.42;;;25.30;95.30;;;;;;5012187;28;20054;-76
2023/07/19 10:25:22;;;;;;;30.50;28.90;;;25.40;95.00;;;;;;5012169;28;20386;-76
2023/07/19 10:28:01;;;;;;;28.08;26.42;;;25.50;95.30;;;;;;5012585;28;20042;-76
2023/07/19 10:31:01;;;;;;;27.20;25.80;;;25.70;94.60;;;;;;5011254;28;20030;-77
2023/07/19 10:33:29;;;;;;;29.52;27.73;;;25.80;94.80;;;;;;5012348;28;20050;-76
2023/07/19 10:36:08;;;;;;;25.98;24.48;;;25.80;94.70;;;;;;5011862;28;20038;-77
2023/07/19 10:38:34;;;;;;;22.13;20.92;;;25.80;94.70;;;;;;5012439;28;20049;-76
2023/07/19 10:41:02;;;;;;;20.60;19.42;;;26.00;94.60;;;;;;5012064;28;20041;-76
2023/07/19 10:43:30;;;;;;;21.90;20.65;;;26.30;93.80;;;;;;5012459;28;20042;-76
2023/07/19 10:45:59;;;;;;;24.85;23.45;;;26.50;94.20;;;;;;5010841;28;20479;-76
2023/07/19 10:48:26;;;;;;;25.80;24.20;;;26.50;94.00;;;;;;5012168;28;20049;-76
2023/07/19 10:50:55;;;;;;;28.60;26.98;;;26.60;93.80;;;;;;5010493;28;20053;-76
2023/07/19 10:53:21;;;;;;;30.17;28.20;;;26.50;94.40;;;;;;5012707;28;20046;-77
2023/07/19 10:55:51;;;;;;;27.88;26.17;;;26.50;94.00;;;;;;5012133;28;20398;-76
2023/07/19 10:58:17;;;;;;;31.63;29.58;;;26.50;94.00;;;;;;5011711;28;20356;-77
2023/07/19 11:00:43;;;;;;;25.17;23.67;;;26.40;94.10;;;;;;5011921;28;20049;-77
2023/07/19 11:03:15;;;;;;;31.33;29.52;;;26.50;93.80;;;;;;5016205;28;20038;-77
2023/07/19 11:05:47;;;;;;;26.33;24.83;;;26.80;94.40;;;;;;5015327;28;20497;-76
2023/07/19 11:08:24;;;;;;;28.38;26.67;;;27.10;92.60;;;;;;5015525;28;20042;-76
2023/07/19 11:10:51;;;;;;;25.33;23.85;;;27.00;92.40;;;;;;5015408;28;20030;-74
2023/07/19 11:13:18;;;;;;;37.00;34.80;;;27.00;92.30;;;;;;5013909;28;20034;-77
2023/07/19 11:15:48;;;;;;;32.33;30.30;;;27.00;91.40;;;;;;5014959;28;20060;-77
2023/07/19 11:18:27;;;;;;;36.65;34.78;;;27.10;90.90;;;;;;5015960;28;20033;-76
2023/07/19 11:20:57;;;;;;;29.40;27.80;;;26.90;90.90;;;;;;5014088;28;20029;-76
2023/07/19 11:23:24;;;;;;;26.07;24.67;;;26.80;90.50;;;;;;5015380;28;20383;-76
2023/07/19 11:25:50;;;;;;;31.52;29.67;;;26.60;90.60;;;;;;5015186;28;20285;-76
2023/07/19 11:28:47;;;;;;;25.10;23.67;;;26.30;91.90;;;;;;5014821;28;20049;-76
2023/07/19 11:31:35;;;;;;;27.92;26.05;;;26.20;90.60;;;;;;5014752;28;20026;-76
2023/07/19 11:34:04;;;;;;;27.98;26.35;;;26.20;90.50;;;;;;5015462;28;20038;-76
2023/07/19 11:36:31;;;;;;;24.55;23.00;;;26.10;90.60;;;;;;5013476;28;20026;-77
2023/07/19 11:38:58;;;;;;;29.02;27.42;;;26.30;91.30;;;;;;5013882;28;20048;-75
2023/07/19 11:41:24;;;;;;;24.65;23.35;;;26.30;90.30;;;;;;4997416;28;20033;-76
2023/07/19 11:43:51;;;;;;;25.00;23.50;;;25.90;90.40;;;;;;5014885;28;20042;-77
2023/07/19 11:46:17;;;;;;;24.30;22.80;;;26.00;91.10;;;;;;5014199;28;20041;-76
2023/07/19 11:48:45;;;;;;;26.25;24.83;;;26.10;91.10;;;;;;5014761;28;20033;-76
2023/07/19 11:51:13;;;;;;;26.92;25.27;;;26.30;91.10;;;;;;5014318;28;20411;-77
2023/07/19 11:53:39;;;;;;;35.88;33.90;;;26.60;90.90;;;;;;5013370;28;20042;-76
2023/07/19 11:56:06;;;;;;;40.00;37.90;;;27.00;90.70;;;;;;5014679;28;20061;-76
2023/07/19 11:58:35;;;;;;;35.70;33.72;;;27.10;89.30;;;;;;5014559;28;20053;-77
2023/07/19 12:01:02;;;;;;;31.52;29.73;;;26.90;88.80;;;;;;5013681;28;20517;-76
2023/07/19 12:03:28;;;;;;;29.67;27.83;;;26.80;90.20;;;;;;5013397;28;20037;-76
2023/07/19 12:05:54;;;;;;;31.08;29.27;;;26.90;90.30;;;;;;5014236;28;20049;-76
2023/07/19 12:08:20;;;;;;;28.90;27.23;;;26.90;90.00;;;;;;5014421;28;20033;-76
2023/07/19 12:10:46;;;;;;;27.60;26.10;;;26.70;90.30;;;;;;5014295;28;20060;-76
2023/07/19 12:13:12;;;;;;;36.95;34.72;;;26.90;90.70;;;;;;5012667;28;20034;-77
2023/07/19 12:15:38;;;;;;;31.48;29.50;;;27.10;89.60;;;;;;5013713;28;20605;-76
2023/07/19 12:18:05;;;;;;;35.72;33.70;;;27.20;89.70;;;;;;5014459;28;20030;-76
2023/07/19 12:20:31;;;;;;;34.17;32.08;;;27.00;88.40;;;;;;5014072;28;20490;-77
2023/07/19 12:22:57;;;;;;;39.22;37.25;;;26.90;89.00;;;;;;5014395;28;20529;-76
2023/07/19 12:25:24;;;;;;;33.13;31.35;;;26.80;88.10;;;;;;5013693;28;20033;-76
2023/07/19 12:27:52;;;;;;;31.42;29.42;;;26.70;89.00;;;;;;5014101;28;20038;-76